createdAt,value
2019-03-20T00:00:06.702Z,9.00
2019-03-20T00:02:38.865Z,8.90
2019-03-20T00:05:13.907Z,8.90
2019-03-20T00:07:45.109Z,9.00
2019-03-20T00:10:17.148Z,8.90
2019-03-20T00:12:48.351Z,8.90
2019-03-20T00:15:20.151Z,8.90
2019-03-20T00:17:52.191Z,8.90
2019-03-20T00:20:23.148Z,8.90
2019-03-20T00:22:55.076Z,8.90
2019-03-20T00:25:26.038Z,8.90
2019-03-20T00:27:57.476Z,8.90
2019-03-20T00:30:28.560Z,8.80
2019-03-20T00:32:59.998Z,8.80
2019-03-20T00:35:31.201Z,8.80
2019-03-20T00:38:03.964Z,8.80
2019-03-20T00:40:35.524Z,8.80
2019-03-20T00:43:07.567Z,8.80
2019-03-20T00:45:38.403Z,8.70
2019-03-20T00:48:09.490Z,8.70
2019-03-20T00:50:40.449Z,8.70
2019-03-20T00:53:11.769Z,8.70
2019-03-20T00:55:42.371Z,8.70
2019-03-20T00:58:13.212Z,8.70
2019-03-20T01:00:43.934Z,8.70
2019-03-20T01:03:15.189Z,8.70
2019-03-20T01:05:46.578Z,8.60
2019-03-20T01:08:17.783Z,8.60
2019-03-20T01:10:49.220Z,8.60
2019-03-20T01:13:20.300Z,8.60
2019-03-20T01:15:51.501Z,8.50
2019-03-20T01:18:22.940Z,8.50
2019-03-20T01:20:55.342Z,8.50
2019-03-20T01:23:25.828Z,8.50
2019-03-20T01:25:57.025Z,8.50
2019-03-20T01:28:27.986Z,8.50
2019-03-20T01:30:58.828Z,8.40
2019-03-20T01:33:29.914Z,8.40
2019-03-20T01:36:00.750Z,8.40
2019-03-20T01:38:31.954Z,8.40
2019-03-20T01:41:03.034Z,8.40
2019-03-20T01:43:34.116Z,8.40
2019-03-20T01:46:04.838Z,8.30
2019-03-20T01:48:35.916Z,8.30
2019-03-20T01:51:21.040Z,8.30
2019-03-20T01:53:52.238Z,8.30
2019-03-20T01:56:23.800Z,8.20
2019-03-20T01:58:54.999Z,8.20
2019-03-20T02:01:26.083Z,8.20
2019-03-20T02:03:57.407Z,8.20
2019-03-20T02:06:28.964Z,8.10
2019-03-20T02:09:00.526Z,8.20
2019-03-20T02:11:34.008Z,8.10
2019-03-20T02:14:05.330Z,8.10
2019-03-20T02:16:36.177Z,8.10
2019-03-20T02:19:07.137Z,8.10
2019-03-20T02:21:37.994Z,8.10
2019-03-20T02:24:09.054Z,8.00
2019-03-20T02:26:40.374Z,8.00
2019-03-20T02:29:11.870Z,8.00
2019-03-20T02:31:43.017Z,8.00
2019-03-20T02:34:14.099Z,8.00
2019-03-20T02:36:45.182Z,7.90
2019-03-20T02:39:17.103Z,7.90
2019-03-20T02:41:48.194Z,7.90
2019-03-20T02:44:19.269Z,7.90
2019-03-20T02:46:50.587Z,7.90
2019-03-20T02:49:22.267Z,7.90
2019-03-20T02:51:52.746Z,7.80
2019-03-20T02:54:23.829Z,7.80
2019-03-20T02:56:55.038Z,7.80
2019-03-20T02:59:25.754Z,7.80
2019-03-20T03:01:57.434Z,7.80
2019-03-20T03:04:28.771Z,7.80
2019-03-20T03:07:00.084Z,7.80
2019-03-20T03:09:31.038Z,7.80
2019-03-20T03:12:02.003Z,7.70
2019-03-20T03:14:33.364Z,7.70
2019-03-20T03:17:04.526Z,7.70
2019-03-20T03:19:35.140Z,7.70
2019-03-20T03:22:06.445Z,7.70
2019-03-20T03:24:37.764Z,7.70
2019-03-20T03:27:09.084Z,7.60
2019-03-20T03:29:40.051Z,7.60
2019-03-20T03:32:11.130Z,7.60
2019-03-20T03:34:43.411Z,7.60
2019-03-20T03:37:14.372Z,7.60
2019-03-20T03:39:45.692Z,7.60
2019-03-20T03:42:16.773Z,7.60
2019-03-20T03:44:47.735Z,7.50
2019-03-20T03:47:19.056Z,7.50
2019-03-20T03:49:50.260Z,7.50
2019-03-20T03:52:21.466Z,7.50
2019-03-20T03:54:52.299Z,7.50
2019-03-20T03:57:23.863Z,7.50
2019-03-20T03:59:55.302Z,7.50
2019-03-20T04:02:26.627Z,7.50
2019-03-20T04:04:57.404Z,7.50
2019-03-20T04:07:29.027Z,7.40
2019-03-20T04:10:00.347Z,7.40
2019-03-20T04:12:31.548Z,7.40
2019-03-20T04:15:02.629Z,7.40
2019-03-20T04:17:33.351Z,7.40
2019-03-20T04:20:04.322Z,7.40
2019-03-20T04:22:35.276Z,7.40
2019-03-20T04:25:06.714Z,7.30
2019-03-20T04:27:37.799Z,7.30
2019-03-20T04:30:09.123Z,7.30
2019-03-20T04:32:40.127Z,7.30
2019-03-20T04:35:15.961Z,7.30
2019-03-20T04:37:46.799Z,7.30
2019-03-20T04:40:18.132Z,7.20
2019-03-20T04:42:49.081Z,7.20
2019-03-20T04:45:20.524Z,7.20
2019-03-20T04:47:51.965Z,7.20
2019-03-20T04:50:23.283Z,7.20
2019-03-20T04:52:55.573Z,7.20
2019-03-20T04:55:26.413Z,7.10
2019-03-20T04:57:57.615Z,7.10
2019-03-20T05:00:28.740Z,7.10
2019-03-20T05:03:01.057Z,7.10
2019-03-20T05:05:32.296Z,7.10
2019-03-20T05:08:03.150Z,7.10
2019-03-20T05:10:33.617Z,7.10
2019-03-20T05:13:04.579Z,7.10
2019-03-20T05:15:35.657Z,7.00
2019-03-20T05:18:07.699Z,7.00
2019-03-20T05:20:38.781Z,7.00
2019-03-20T05:23:10.222Z,7.00
2019-03-20T05:25:41.665Z,7.00
2019-03-20T05:28:12.627Z,7.00
2019-03-20T05:30:43.465Z,7.00
2019-03-20T05:33:14.787Z,7.00
2019-03-20T05:35:45.988Z,7.00
2019-03-20T05:38:17.070Z,7.00
2019-03-20T05:40:48.390Z,7.00
2019-03-20T05:43:19.471Z,7.00
2019-03-20T05:45:50.433Z,6.90
2019-03-20T05:48:21.638Z,6.90
2019-03-20T05:50:52.837Z,6.90
2019-03-20T05:53:23.558Z,6.90
2019-03-20T05:55:54.803Z,6.90
2019-03-20T05:58:25.839Z,6.90
2019-03-20T06:00:57.402Z,6.90
2019-03-20T06:03:28.961Z,6.90
2019-03-20T06:06:01.486Z,6.90
2019-03-20T06:08:32.684Z,7.00
2019-03-20T06:11:03.540Z,6.90
2019-03-20T06:13:34.370Z,6.90
2019-03-20T06:16:06.050Z,7.00
2019-03-20T06:18:37.732Z,6.90
2019-03-20T06:21:09.411Z,7.00
2019-03-20T06:23:40.612Z,7.00
2019-03-20T06:26:11.694Z,7.00
2019-03-20T06:28:43.134Z,7.00
2019-03-20T06:31:14.459Z,7.00
2019-03-20T06:33:45.421Z,7.00
2019-03-20T06:36:16.737Z,7.00
2019-03-20T06:38:47.942Z,7.00
2019-03-20T06:41:18.423Z,7.10
2019-03-20T06:43:49.863Z,7.10
2019-03-20T06:46:23.465Z,7.20
2019-03-20T06:48:54.785Z,7.20
2019-03-20T06:51:25.866Z,7.20
2019-03-20T06:53:57.308Z,7.20
2019-03-20T06:56:28.543Z,7.30
2019-03-20T06:59:41.350Z,7.30
2019-03-20T07:02:12.193Z,7.30
2019-03-20T07:05:20.111Z,7.30
2019-03-20T07:07:50.956Z,7.30
2019-03-20T07:10:38.958Z,7.30
2019-03-20T07:13:09.556Z,7.30
2019-03-20T07:15:40.998Z,7.30
2019-03-20T07:18:11.843Z,7.40
2019-03-20T07:20:42.681Z,7.40
2019-03-20T07:23:14.000Z,7.40
2019-03-20T07:25:44.722Z,7.50
2019-03-20T07:28:15.804Z,7.50
2019-03-20T07:30:47.006Z,7.50
2019-03-20T07:33:17.849Z,7.60
2019-03-20T07:35:49.170Z,7.60
2019-03-20T07:38:20.370Z,7.60
2019-03-20T07:40:51.502Z,7.60
2019-03-20T07:43:22.535Z,7.60
2019-03-20T07:45:53.734Z,7.60
2019-03-20T07:48:25.896Z,7.60
2019-03-20T07:50:57.216Z,7.60
2019-03-20T07:53:28.774Z,7.70
2019-03-20T07:55:59.979Z,7.70
2019-03-20T07:58:31.348Z,7.70
2019-03-20T08:01:02.461Z,7.70
2019-03-20T08:03:33.224Z,7.70
2019-03-20T08:06:04.664Z,7.70
2019-03-20T08:08:35.382Z,7.70
2019-03-20T08:11:06.768Z,7.80
2019-03-20T08:13:37.664Z,7.80
2019-03-20T08:16:08.988Z,7.80
2019-03-20T08:18:40.548Z,7.90
2019-03-20T08:21:12.953Z,7.90
2019-03-20T08:23:43.910Z,7.90
2019-03-20T08:26:15.112Z,7.90
2019-03-20T08:28:47.997Z,8.00
2019-03-20T08:31:19.564Z,8.00
2019-03-20T08:33:51.002Z,8.10
2019-03-20T08:36:22.436Z,8.10
2019-03-20T08:38:53.399Z,8.10
2019-03-20T08:41:24.838Z,8.10
2019-03-20T08:43:55.920Z,8.10
2019-03-20T08:46:27.842Z,8.20
2019-03-20T08:48:58.920Z,8.20
2019-03-20T08:51:30.606Z,8.20
2019-03-20T08:54:01.684Z,8.20
2019-03-20T08:56:32.528Z,8.30
2019-03-20T08:59:05.648Z,8.30
2019-03-20T09:01:37.568Z,8.30
2019-03-20T09:04:08.532Z,8.30
2019-03-20T09:06:40.453Z,8.40
2019-03-20T09:09:11.421Z,8.40
2019-03-20T09:11:42.736Z,8.40
2019-03-20T09:14:14.174Z,8.50
2019-03-20T09:16:45.258Z,8.50
2019-03-20T09:19:16.816Z,8.60
2019-03-20T09:21:48.258Z,8.70
2019-03-20T09:24:19.224Z,8.70
2019-03-20T09:26:50.434Z,8.70
2019-03-20T09:29:21.743Z,8.80
2019-03-20T09:31:52.824Z,8.80
2019-03-20T09:34:24.028Z,8.80
2019-03-20T09:36:55.231Z,8.80
2019-03-20T09:39:26.428Z,8.80
2019-03-20T09:41:58.351Z,8.80
2019-03-20T09:44:29.308Z,8.80
2019-03-20T09:47:00.633Z,8.90
2019-03-20T09:49:31.470Z,8.90
2019-03-20T09:52:02.557Z,8.90
2019-03-20T09:54:33.395Z,8.90
2019-03-20T09:57:04.954Z,9.00
2019-03-20T09:59:36.818Z,9.00
2019-03-20T10:02:08.078Z,9.10
2019-03-20T10:04:39.038Z,9.10
2019-03-20T10:07:10.121Z,9.10
2019-03-20T10:09:41.325Z,9.10
2019-03-20T10:12:12.403Z,9.20
2019-03-20T10:14:43.125Z,9.20
2019-03-20T10:17:14.086Z,9.30
2019-03-20T10:19:46.371Z,9.30
2019-03-20T10:22:17.329Z,9.30
2019-03-20T10:24:48.290Z,9.30
2019-03-20T10:27:19.737Z,9.30
2019-03-20T10:29:50.931Z,9.30
2019-03-20T10:32:21.893Z,9.30
2019-03-20T10:34:52.613Z,9.30
2019-03-20T10:37:24.175Z,9.40
2019-03-20T10:39:55.498Z,9.40
2019-03-20T10:42:27.542Z,9.40
2019-03-20T10:44:59.339Z,9.50
2019-03-20T10:47:30.790Z,9.50
2019-03-20T10:50:01.990Z,9.60
2019-03-20T10:52:34.141Z,9.70
2019-03-20T10:55:08.222Z,9.70
2019-03-20T10:57:38.962Z,9.60
2019-03-20T11:00:16.388Z,9.70
2019-03-20T11:02:48.067Z,9.70
2019-03-20T11:05:19.264Z,9.70
2019-03-20T11:07:50.149Z,9.70
2019-03-20T11:10:22.993Z,9.70
2019-03-20T11:12:55.754Z,9.70
2019-03-20T11:15:29.566Z,9.70
2019-03-20T11:17:59.733Z,9.70
2019-03-20T11:20:30.675Z,9.70
2019-03-20T11:23:01.877Z,9.80
2019-03-20T11:25:32.959Z,9.80
2019-03-20T11:28:04.159Z,9.70
2019-03-20T11:30:35.963Z,9.80
2019-03-20T11:33:07.044Z,9.70
2019-03-20T11:35:37.765Z,9.70
2019-03-20T11:38:08.908Z,9.70
2019-03-20T11:40:40.173Z,9.70
2019-03-20T11:43:11.367Z,9.70
2019-03-20T11:45:42.448Z,9.70
2019-03-20T11:48:13.889Z,9.80
2019-03-20T11:50:45.333Z,9.80
2019-03-20T11:53:17.734Z,9.90
2019-03-20T11:55:48.813Z,9.90
2019-03-20T11:58:21.696Z,9.90
2019-03-20T12:00:53.498Z,9.90
2019-03-20T12:03:24.702Z,9.90
2019-03-20T12:05:56.737Z,9.90
2019-03-20T12:08:28.179Z,10.00
2019-03-20T12:10:59.500Z,10.00
2019-03-20T12:13:31.542Z,9.90
2019-03-20T12:16:03.230Z,10.00
2019-03-20T12:18:34.065Z,9.90
2019-03-20T12:21:05.385Z,10.00
2019-03-20T12:23:37.604Z,10.00
2019-03-20T12:26:08.869Z,10.00
2019-03-20T12:28:39.951Z,10.00
2019-03-20T12:31:11.031Z,10.00
2019-03-20T12:33:42.477Z,10.00
2019-03-20T12:36:13.553Z,10.00
2019-03-20T12:38:44.515Z,10.00
2019-03-20T12:41:15.476Z,10.00
2019-03-20T12:43:46.677Z,10.00
2019-03-20T12:46:17.639Z,10.00
2019-03-20T12:48:49.559Z,10.00
2019-03-20T12:51:20.881Z,10.00
2019-03-20T12:53:51.727Z,10.00
2019-03-20T12:56:22.923Z,10.10
2019-03-20T12:58:54.363Z,10.10
2019-03-20T13:01:25.687Z,10.10
2019-03-20T13:03:56.773Z,10.10
2019-03-20T13:06:28.327Z,10.10
2019-03-20T13:09:00.016Z,10.20
2019-03-20T13:11:30.976Z,10.20
2019-03-20T13:14:02.652Z,10.20
2019-03-20T13:16:33.973Z,10.20
2019-03-20T13:19:05.175Z,10.10
2019-03-20T13:21:36.258Z,10.10
2019-03-20T13:24:06.976Z,10.20
2019-03-20T13:26:38.657Z,10.20
2019-03-20T13:29:09.743Z,10.30
2019-03-20T13:31:41.181Z,10.40
2019-03-20T13:34:12.505Z,10.40
2019-03-20T13:36:45.132Z,10.50
2019-03-20T13:39:15.986Z,10.50
2019-03-20T13:41:47.186Z,10.40
2019-03-20T13:44:18.268Z,10.40
2019-03-20T13:46:49.230Z,10.40
2019-03-20T13:49:19.710Z,10.50
2019-03-20T13:51:51.391Z,10.50
2019-03-20T13:54:22.112Z,10.60
2019-03-20T13:56:52.832Z,10.70
2019-03-20T13:59:23.795Z,10.80
2019-03-20T14:01:54.636Z,10.90
2019-03-20T14:04:25.838Z,11.00
2019-03-20T14:06:57.405Z,11.20
2019-03-20T14:09:28.360Z,11.40
2019-03-20T14:11:59.200Z,11.50
2019-03-20T14:14:30.285Z,11.70
2019-03-20T14:17:01.248Z,11.90
2019-03-20T14:19:32.684Z,12.00
2019-03-20T14:22:03.891Z,12.20
2019-03-20T14:24:36.044Z,12.30
2019-03-20T14:27:06.765Z,12.50
2019-03-20T14:29:39.635Z,12.60
2019-03-20T14:32:10.969Z,12.70
2019-03-20T14:34:42.049Z,12.80
2019-03-20T14:37:13.254Z,12.90
2019-03-20T14:39:44.214Z,13.00
2019-03-20T14:42:15.422Z,13.00
2019-03-20T14:44:46.978Z,13.10
2019-03-20T14:47:17.698Z,13.20
2019-03-20T14:49:48.784Z,13.30
2019-03-20T14:52:19.864Z,13.30
2019-03-20T14:54:52.027Z,13.40
2019-03-20T14:57:23.580Z,13.40
2019-03-20T14:59:54.902Z,13.40
2019-03-20T15:02:26.110Z,13.50
2019-03-20T15:04:57.066Z,13.60
2019-03-20T15:07:28.268Z,13.70
2019-03-20T15:09:59.476Z,13.70
2019-03-20T15:12:30.548Z,13.70
2019-03-20T15:15:01.396Z,13.80
2019-03-20T15:17:32.357Z,13.80
2019-03-20T15:20:03.795Z,13.90
2019-03-20T15:22:35.234Z,13.90
2019-03-20T15:25:06.436Z,14.00
2019-03-20T15:27:37.756Z,14.00
2019-03-20T15:30:11.718Z,14.00
2019-03-20T15:32:42.924Z,14.00
2019-03-20T15:35:15.562Z,14.00
2019-03-20T15:37:49.208Z,14.00
2019-03-20T15:40:20.124Z,14.10
2019-03-20T15:42:51.807Z,14.00
2019-03-20T15:45:22.887Z,14.00
2019-03-20T15:47:53.972Z,14.00
2019-03-20T15:50:25.045Z,14.10
2019-03-20T15:52:56.131Z,14.10
2019-03-20T15:55:28.890Z,14.20
2019-03-20T15:57:59.978Z,14.20
2019-03-20T16:00:30.814Z,14.20
2019-03-20T16:03:05.854Z,14.20
2019-03-20T16:05:37.416Z,14.20
2019-03-20T16:08:08.738Z,14.20
2019-03-20T16:10:40.180Z,14.10
2019-03-20T16:13:12.102Z,14.00
2019-03-20T16:15:43.419Z,13.80
2019-03-20T16:18:14.625Z,13.70
2019-03-20T16:20:47.026Z,13.60
2019-03-20T16:23:18.467Z,13.60
2019-03-20T16:25:49.424Z,13.50
2019-03-20T16:28:20.512Z,13.50
2019-03-20T16:30:51.586Z,13.30
2019-03-20T16:33:22.671Z,13.30
2019-03-20T16:35:53.877Z,13.20
2019-03-20T16:38:26.274Z,13.20
2019-03-20T16:40:57.591Z,13.20
2019-03-20T16:43:28.676Z,13.20
2019-03-20T16:45:59.756Z,13.10
2019-03-20T16:48:31.438Z,13.00
2019-03-20T16:51:02.640Z,13.00
2019-03-20T16:53:33.118Z,12.90
2019-03-20T16:56:03.962Z,12.90
2019-03-20T16:58:34.922Z,12.90
2019-03-20T17:01:06.248Z,12.90
2019-03-20T17:03:36.964Z,12.90
2019-03-20T17:06:08.046Z,12.90
2019-03-20T17:08:39.127Z,12.80
2019-03-20T17:11:10.568Z,12.80
2019-03-20T17:13:41.893Z,12.80
2019-03-20T17:16:14.531Z,12.80
2019-03-20T17:18:45.972Z,12.80
2019-03-20T17:21:17.176Z,12.70
2019-03-20T17:23:48.972Z,12.70
2019-03-20T17:26:20.176Z,12.80
2019-03-20T17:28:51.376Z,12.70
2019-03-20T17:31:22.579Z,12.80
2019-03-20T17:33:53.904Z,12.70
2019-03-20T17:36:25.100Z,12.70
2019-03-20T17:38:56.786Z,12.70
2019-03-20T17:41:36.461Z,12.70
2019-03-20T17:44:00.504Z,12.70
2019-03-20T17:46:31.824Z,12.70
2019-03-20T17:49:03.145Z,12.70
2019-03-20T17:51:35.666Z,12.70
2019-03-20T17:54:06.987Z,12.60
2019-03-20T17:56:38.189Z,12.60
2019-03-20T17:59:08.792Z,12.60
2019-03-20T18:01:40.113Z,12.60
2019-03-20T18:04:11.435Z,12.60
2019-03-20T18:06:42.993Z,12.50
2019-03-20T18:09:14.800Z,12.50
2019-03-20T18:11:47.649Z,12.50
2019-03-20T18:14:19.359Z,12.50
2019-03-20T18:16:50.318Z,12.50
2019-03-20T18:19:21.523Z,12.40
2019-03-20T18:21:52.962Z,12.40
2019-03-20T18:24:24.165Z,12.40
2019-03-20T18:26:55.843Z,12.40
2019-03-20T18:29:27.167Z,12.40
2019-03-20T18:31:58.847Z,12.30
2019-03-20T18:34:29.577Z,12.40
2019-03-20T18:37:01.369Z,12.40
2019-03-20T18:39:32.697Z,12.40
2019-03-20T18:42:04.975Z,12.40
2019-03-20T18:44:36.413Z,12.40
2019-03-20T18:47:07.375Z,12.30
2019-03-20T18:49:38.337Z,12.30
2019-03-20T18:52:09.660Z,12.40
2019-03-20T18:54:40.857Z,12.30
2019-03-20T18:57:12.299Z,12.30
2019-03-20T18:59:43.265Z,12.40
2019-03-20T19:02:14.463Z,12.30
2019-03-20T19:04:46.983Z,12.30
2019-03-20T19:07:18.429Z,12.30
2019-03-20T19:09:51.067Z,12.30
2019-03-20T19:12:21.902Z,12.30
2019-03-20T19:14:54.442Z,12.30
2019-03-20T19:17:25.875Z,12.30
2019-03-20T19:19:57.083Z,12.30
2019-03-20T19:22:28.158Z,12.30
2019-03-20T19:25:00.423Z,12.30
2019-03-20T19:27:31.885Z,12.30
2019-03-20T19:30:03.438Z,12.30
2019-03-20T19:32:34.515Z,12.30
2019-03-20T19:37:46.762Z,12.30
2019-03-20T19:40:18.679Z,12.20
2019-03-20T19:42:49.646Z,12.20
2019-03-20T19:45:20.604Z,12.20
2019-03-20T19:47:52.168Z,12.20
2019-03-20T19:50:23.364Z,12.20
2019-03-20T19:52:54.207Z,12.10
2019-03-20T19:55:24.807Z,12.10
2019-03-20T19:57:56.011Z,12.10
2019-03-20T20:00:27.451Z,12.10
2019-03-20T20:02:58.175Z,12.10
2019-03-20T20:05:29.256Z,12.10
2019-03-20T20:08:00.218Z,12.00
2019-03-20T20:10:31.899Z,12.00
2019-03-20T20:13:02.859Z,12.00
2019-03-20T20:15:33.701Z,12.00
2019-03-20T20:18:05.740Z,12.00
2019-03-20T20:20:36.824Z,11.90
2019-03-20T20:23:08.621Z,11.90
2019-03-20T20:25:39.591Z,11.90
2019-03-20T20:28:11.691Z,11.90
2019-03-20T20:30:45.826Z,11.90
2019-03-20T20:33:17.273Z,11.90
2019-03-20T20:35:48.473Z,11.80
2019-03-20T20:38:19.791Z,11.80
2019-03-20T20:40:51.242Z,11.80
2019-03-20T20:43:22.447Z,11.80
2019-03-20T20:45:54.480Z,11.70
2019-03-20T20:48:25.437Z,11.70
2019-03-20T20:50:56.399Z,11.70
2019-03-20T20:53:27.481Z,11.70
2019-03-20T20:55:58.575Z,11.70
2019-03-20T20:58:30.242Z,11.70
2019-03-20T21:01:01.448Z,11.70
2019-03-20T21:03:33.727Z,11.60
2019-03-20T21:06:05.284Z,11.60
2019-03-20T21:08:36.259Z,11.60
2019-03-20T21:11:07.216Z,11.60
2019-03-20T21:13:39.848Z,11.60
2019-03-20T21:16:12.856Z,11.50
2019-03-20T21:19:23.173Z,11.50
2019-03-20T21:22:33.520Z,11.50
2019-03-20T21:25:06.855Z,11.40
2019-03-20T21:28:21.264Z,11.40
2019-03-20T21:31:20.658Z,11.40
2019-03-20T21:34:29.780Z,11.40
2019-03-20T21:37:41.828Z,11.40
2019-03-20T21:40:14.900Z,11.30
2019-03-20T21:43:31.584Z,11.30
2019-03-20T21:46:43.584Z,11.30
2019-03-20T21:49:16.114Z,11.20
2019-03-20T21:51:47.667Z,11.20
2019-03-20T21:54:59.670Z,11.20
2019-03-20T21:57:52.085Z,11.10
2019-03-20T22:01:02.434Z,11.10
2019-03-20T22:03:33.754Z,11.10
2019-03-20T22:06:41.358Z,11.10
2019-03-20T22:09:32.462Z,11.10
2019-03-20T22:12:23.322Z,11.10
2019-03-20T22:15:12.643Z,11.10
2019-03-20T22:18:11.924Z,11.00
2019-03-20T22:20:49.723Z,11.00
2019-03-20T22:23:52.847Z,11.00
2019-03-20T22:26:49.605Z,11.00
2019-03-20T22:29:25.974Z,11.00
2019-03-20T22:32:16.848Z,11.00
2019-03-20T22:35:27.409Z,11.10
2019-03-20T22:38:00.172Z,10.90
2019-03-20T22:41:06.533Z,10.90
2019-03-20T22:43:59.815Z,10.90
2019-03-20T22:47:10.379Z,10.80
2019-03-20T22:50:37.527Z,10.80
2019-03-20T22:53:59.226Z,10.80
2019-03-20T22:57:04.264Z,10.80
2019-03-20T22:59:36.781Z,10.70
2019-03-20T23:02:42.303Z,10.70
2019-03-20T23:05:20.111Z,10.70
2019-03-20T23:07:51.904Z,10.70
2019-03-20T23:10:23.588Z,10.70
2019-03-20T23:12:55.868Z,10.70
2019-03-20T23:15:27.430Z,10.70
2019-03-20T23:17:58.871Z,10.70
2019-03-20T23:20:31.034Z,10.70
2019-03-20T23:23:02.837Z,10.60
2019-03-20T23:25:34.637Z,10.70
2019-03-20T23:28:05.836Z,10.60
2019-03-20T23:30:37.278Z,10.60
2019-03-20T23:33:09.318Z,10.60
2019-03-20T23:35:40.760Z,10.60
2019-03-20T23:38:12.320Z,10.50
2019-03-20T23:40:43.763Z,10.50
2019-03-20T23:43:15.739Z,10.50
2019-03-20T23:45:49.052Z,10.50
2019-03-20T23:48:28.166Z,10.40
2019-03-20T23:51:03.091Z,10.40
2019-03-20T23:53:34.888Z,10.40
2019-03-20T23:56:07.528Z,10.40
2019-03-20T23:58:39.809Z,10.40
